createdAt,value
2018-07-01T08:39:26.740Z,28.51
2018-07-01T08:41:56.440Z,28.48
2018-07-01T08:44:24.123Z,28.29
2018-07-01T08:46:52.820Z,27.59
2018-07-01T08:49:21.576Z,27.15
2018-07-01T08:51:49.235Z,27.34
2018-07-01T08:54:16.903Z,27.16
2018-07-01T08:56:45.528Z,26.79
2018-07-01T08:59:16.884Z,26.70
2018-07-01T09:01:45.331Z,27.40
2018-07-01T09:04:13.316Z,26.73
2018-07-01T09:06:41.584Z,27.36
2018-07-01T09:09:09.397Z,26.76
2018-07-01T09:11:39.313Z,27.05
2018-07-01T09:14:08.160Z,26.92
2018-07-01T09:16:36.717Z,26.73
2018-07-01T09:19:07.316Z,26.77
2018-07-01T09:26:37.399Z,26.10
2018-07-01T09:29:05.434Z,25.63
2018-07-01T09:31:34.583Z,26.14
2018-07-01T09:34:02.423Z,25.97
2018-07-01T09:36:30.096Z,26.28
2018-07-01T09:38:59.045Z,26.10
2018-07-01T09:41:28.496Z,25.15
2018-07-01T09:43:56.213Z,24.87
2018-07-01T09:46:25.629Z,25.55
2018-07-01T09:48:58.947Z,25.50
2018-07-01T09:51:26.620Z,25.48
2018-07-01T09:53:55.117Z,24.59
2018-07-01T09:56:24.474Z,24.75
2018-07-01T09:58:52.391Z,24.82
2018-07-01T10:01:20.576Z,24.41
2018-07-01T10:03:48.278Z,24.17
2018-07-01T10:06:17.392Z,23.74
2018-07-01T10:08:46.296Z,23.92
2018-07-01T10:11:14.807Z,23.96
2018-07-01T10:13:43.495Z,23.74
2018-07-01T10:16:12.089Z,23.43
2018-07-01T10:18:39.789Z,22.99
2018-07-01T10:21:08.786Z,22.95
2018-07-01T10:23:36.747Z,22.14
2018-07-01T10:26:05.256Z,21.70
2018-07-01T10:28:33.565Z,22.10
2018-07-01T10:31:02.377Z,21.24
2018-07-01T10:33:31.530Z,21.69
2018-07-01T10:36:00.362Z,21.61
2018-07-01T10:38:32.444Z,21.43
2018-07-01T10:41:03.719Z,20.61
2018-07-01T10:43:32.689Z,21.17
2018-07-01T10:46:03.239Z,21.04
2018-07-01T10:48:32.394Z,20.94
2018-07-01T10:51:00.512Z,20.31
2018-07-01T10:53:28.181Z,20.31
2018-07-01T10:55:55.879Z,20.49
2018-07-01T10:58:29.568Z,19.62
2018-07-01T11:00:58.168Z,19.59
2018-07-01T11:03:27.141Z,19.32
2018-07-01T11:05:56.186Z,20.03
2018-07-01T11:08:24.863Z,19.10
2018-07-01T11:10:53.480Z,19.30
2018-07-01T11:13:21.479Z,18.97
2018-07-01T11:15:49.183Z,19.12
2018-07-01T11:18:16.856Z,19.34
2018-07-01T11:20:45.511Z,18.95
2018-07-01T11:23:13.178Z,18.41
2018-07-01T11:25:41.881Z,18.56
2018-07-01T11:28:09.863Z,19.08
2018-07-01T11:30:43.268Z,17.99
2018-07-01T11:33:11.199Z,18.94
2018-07-01T11:35:39.836Z,19.01
2018-07-01T11:38:10.192Z,17.98
2018-07-01T11:40:38.638Z,17.92
2018-07-01T11:43:08.264Z,18.57
2018-07-01T11:45:35.961Z,18.15
2018-07-01T11:48:05.261Z,18.64
2018-07-01T11:50:34.620Z,17.47
2018-07-01T11:53:05.500Z,18.42
2018-07-01T11:55:33.473Z,17.82
2018-07-01T11:58:01.560Z,17.27
2018-07-01T12:00:31.171Z,17.92
2018-07-01T12:03:03.913Z,17.80
2018-07-01T12:05:31.661Z,17.12
2018-07-01T12:07:59.350Z,17.16
2018-07-01T12:10:27.559Z,17.74
2018-07-01T12:12:55.440Z,17.47
2018-07-01T12:15:23.804Z,16.74
2018-07-01T12:17:54.735Z,17.06
2018-07-01T12:20:22.409Z,16.71
2018-07-01T12:22:51.372Z,16.54
2018-07-01T12:25:19.400Z,16.44
2018-07-01T12:27:47.363Z,16.42
2018-07-01T12:30:16.341Z,16.58
2018-07-01T12:32:45.485Z,17.14
2018-07-01T12:35:13.183Z,17.49
2018-07-01T12:37:41.104Z,16.28
2018-07-01T12:40:09.052Z,17.27
2018-07-01T12:42:36.748Z,17.37
2018-07-01T12:45:05.272Z,16.91
2018-07-01T12:47:34.391Z,17.16
2018-07-01T12:50:02.389Z,16.05
2018-07-01T12:52:30.610Z,17.21
2018-07-01T12:54:58.576Z,16.09
2018-07-01T12:57:26.895Z,16.34
2018-07-01T12:59:55.247Z,16.17
2018-07-01T13:02:23.260Z,16.97
2018-07-01T13:04:52.217Z,16.57
2018-07-01T13:07:21.073Z,16.07
2018-07-01T13:09:51.330Z,16.46
2018-07-01T13:12:21.240Z,15.60
2018-07-01T13:14:49.890Z,15.77
2018-07-01T13:17:18.456Z,15.85
2018-07-01T13:19:47.212Z,15.93
2018-07-01T13:22:14.932Z,15.44
2018-07-01T13:24:42.867Z,14.94
2018-07-01T13:27:11.488Z,14.61
2018-07-01T13:29:40.116Z,14.44
2018-07-01T13:32:08.820Z,15.80
2018-07-01T13:34:37.163Z,14.50
2018-07-01T13:37:04.841Z,15.11
2018-07-01T13:39:33.545Z,14.73
2018-07-01T13:42:03.700Z,14.65
2018-07-01T13:44:31.696Z,14.15
2018-07-01T13:46:59.625Z,15.04
2018-07-01T13:49:29.696Z,14.91
2018-07-01T13:51:58.114Z,14.69
2018-07-01T13:54:25.762Z,15.07
2018-07-01T13:56:54.714Z,15.10
2018-07-01T13:59:24.444Z,14.46
2018-07-01T14:01:52.649Z,15.01
2018-07-01T14:04:21.269Z,15.03
2018-07-01T14:06:50.581Z,14.42
2018-07-01T14:09:19.230Z,15.01
2018-07-01T14:11:47.595Z,14.98
2018-07-01T14:14:18.528Z,14.52
2018-07-01T14:16:47.111Z,15.01
2018-07-01T14:19:16.645Z,14.63
2018-07-01T14:21:45.156Z,14.94
2018-07-01T14:24:13.708Z,14.96
2018-07-01T14:26:41.393Z,14.78
2018-07-01T14:29:09.516Z,14.04
2018-07-01T14:31:40.112Z,13.62
2018-07-01T14:34:07.812Z,13.34
2018-07-01T14:36:41.244Z,13.24
2018-07-01T14:39:09.744Z,13.58
2018-07-01T14:41:37.595Z,14.02
2018-07-01T14:44:06.615Z,13.61
2018-07-01T14:46:34.312Z,13.49
2018-07-01T14:49:02.251Z,12.96
2018-07-01T14:51:33.792Z,13.51
2018-07-01T14:54:03.408Z,13.31
2018-07-01T14:56:33.923Z,12.94
2018-07-01T14:59:02.444Z,13.52
2018-07-01T15:01:32.642Z,13.73
2018-07-01T15:04:00.299Z,13.22
2018-07-01T15:06:28.241Z,12.93
2018-07-01T15:08:55.925Z,12.50
2018-07-01T15:11:23.612Z,13.24
2018-07-01T15:13:53.560Z,13.15
2018-07-01T15:16:23.256Z,12.27
2018-07-01T15:18:51.940Z,12.99
2018-07-01T15:21:19.948Z,12.93
2018-07-01T15:23:47.601Z,12.46
2018-07-01T15:26:15.591Z,12.35
2018-07-01T15:28:43.533Z,12.16
2018-07-01T15:31:11.189Z,13.21
2018-07-01T15:33:39.428Z,12.47
2018-07-01T15:36:07.358Z,12.13
2018-07-01T15:38:35.032Z,12.92
2018-07-01T15:41:02.758Z,13.53
2018-07-01T15:43:31.684Z,13.13
2018-07-01T15:45:59.349Z,13.73
2018-07-01T15:48:27.008Z,13.28
2018-07-01T15:50:54.952Z,12.70
2018-07-01T15:53:22.625Z,13.74
2018-07-01T15:55:53.071Z,12.94
2018-07-01T15:58:22.220Z,13.23
2018-07-01T16:00:49.902Z,13.40
2018-07-01T16:03:17.564Z,14.17
2018-07-01T16:05:45.525Z,13.97
2018-07-01T16:08:13.201Z,13.35
2018-07-01T16:10:41.499Z,13.35
2018-07-01T16:13:09.434Z,13.58
2018-07-01T16:15:37.125Z,14.24
2018-07-01T16:18:04.810Z,13.90
2018-07-01T16:20:32.844Z,13.71
2018-07-01T16:23:00.520Z,13.42
2018-07-01T16:25:35.271Z,14.78
2018-07-01T16:28:08.764Z,14.97
2018-07-01T16:30:37.093Z,15.88
2018-07-01T16:33:06.244Z,15.99
2018-07-01T16:35:34.180Z,17.02
2018-07-01T16:38:01.877Z,18.38
2018-07-01T16:40:29.777Z,18.00
2018-07-01T16:42:57.794Z,18.47
2018-07-01T16:45:26.332Z,18.63
2018-07-01T16:47:55.425Z,19.14
2018-07-01T16:50:25.393Z,17.85
2018-07-01T16:52:53.940Z,17.38
2018-07-01T16:55:21.650Z,17.48
2018-07-01T16:57:49.620Z,17.29
2018-07-01T17:00:17.358Z,17.03
2018-07-01T17:02:46.347Z,18.52
2018-07-01T17:05:15.416Z,19.21
2018-07-01T17:07:46.307Z,19.68
2018-07-01T17:10:14.779Z,19.47
2018-07-01T17:12:44.676Z,20.59
2018-07-01T17:15:12.385Z,20.70
2018-07-01T17:17:40.044Z,21.03
2018-07-01T17:20:07.992Z,20.97
2018-07-01T17:22:36.830Z,21.12
2018-07-01T17:25:07.510Z,21.12
2018-07-01T17:27:36.374Z,21.94
2018-07-01T17:30:04.824Z,21.53
2018-07-01T17:32:37.568Z,22.12
2018-07-01T17:35:05.497Z,22.25
2018-07-01T17:37:33.730Z,21.57
2018-07-01T17:40:02.228Z,22.45
2018-07-01T17:42:30.179Z,21.71
2018-07-01T17:44:57.838Z,22.00
2018-07-01T17:47:25.500Z,22.03
2018-07-01T17:49:54.554Z,22.35
2018-07-01T17:52:27.513Z,22.26
2018-07-01T17:54:55.607Z,22.72
2018-07-01T17:57:24.558Z,22.50
2018-07-01T17:59:53.409Z,22.88
2018-07-01T18:02:21.088Z,22.54
2018-07-01T18:04:49.557Z,23.40
2018-07-01T18:07:17.735Z,23.25
2018-07-01T18:09:46.996Z,22.92
2018-07-01T18:12:16.500Z,23.00
2018-07-01T18:14:46.517Z,22.95
2018-07-01T18:17:14.794Z,23.30
2018-07-01T18:19:45.716Z,23.65
2018-07-01T18:22:18.303Z,23.84
2018-07-01T18:25:01.551Z,23.20
2018-07-01T18:27:14.310Z,23.37
2018-07-01T18:29:43.526Z,23.59
2018-07-01T18:32:12.390Z,23.92
2018-07-01T18:34:42.046Z,23.97
2018-07-01T18:37:11.245Z,23.60
2018-07-01T18:39:40.120Z,23.63
2018-07-01T18:42:09.667Z,23.67
2018-07-01T18:44:41.278Z,23.82
2018-07-01T18:47:09.562Z,24.57
2018-07-01T18:49:39.130Z,24.00
2018-07-01T18:52:08.896Z,24.70
2018-07-01T18:54:38.357Z,24.41
2018-07-01T18:57:07.774Z,24.82
2018-07-01T18:59:37.000Z,24.38
2018-07-01T19:02:05.335Z,24.77
2018-07-01T20:03:26.288Z,27.38
2018-07-01T20:05:54.834Z,27.25
2018-07-01T20:08:28.363Z,26.58
2018-07-01T20:10:58.085Z,27.29
2018-07-01T20:13:29.448Z,27.16
2018-07-01T20:15:58.606Z,27.41
2018-07-01T20:18:29.107Z,27.46
2018-07-01T20:20:58.088Z,27.15
2018-07-01T20:23:26.579Z,27.49
2018-07-01T20:25:54.266Z,27.91
2018-07-01T20:28:24.466Z,27.17
2018-07-01T20:30:52.144Z,27.49
2018-07-01T20:33:22.694Z,28.02
2018-07-01T20:35:50.655Z,28.10
2018-07-01T20:38:18.544Z,28.45
2018-07-01T20:40:46.896Z,27.72
2018-07-01T20:43:15.360Z,28.53
2018-07-01T20:45:44.028Z,28.16
2018-07-01T20:48:12.426Z,28.71
2018-07-01T20:50:40.419Z,28.30
2018-07-01T20:53:09.644Z,29.13
2018-07-01T20:55:39.268Z,29.42
2018-07-01T20:58:08.776Z,29.58
2018-07-01T21:00:36.459Z,28.96
2018-07-01T21:03:05.715Z,29.09
2018-07-01T21:05:33.859Z,30.01
2018-07-01T21:08:03.232Z,29.69
2018-07-01T21:10:33.225Z,30.06
2018-07-01T21:13:02.432Z,29.52
2018-07-01T21:15:30.855Z,29.71
2018-07-01T21:18:00.139Z,29.89
2018-07-01T21:20:29.077Z,30.08
2018-07-01T21:22:59.291Z,30.68
2018-07-01T21:25:27.002Z,30.36
2018-07-01T21:27:57.640Z,30.24
2018-07-01T21:30:26.367Z,30.84
2018-07-01T21:32:55.740Z,30.62
2018-07-01T21:35:25.202Z,30.44
2018-07-01T21:37:56.535Z,30.34
2018-07-01T21:40:24.295Z,30.38
2018-07-01T21:42:55.257Z,30.24
2018-07-01T21:45:23.023Z,30.82
2018-07-01T21:47:51.411Z,31.17
2018-07-01T21:50:21.368Z,31.13
2018-07-01T21:52:50.468Z,31.40
2018-07-01T21:55:18.164Z,30.87
2018-07-01T21:57:46.119Z,31.49
2018-07-01T22:00:14.795Z,31.38
2018-07-01T22:02:42.620Z,31.01
2018-07-01T22:05:11.429Z,31.23
2018-07-01T22:07:40.689Z,31.77
2018-07-01T22:10:08.341Z,30.98
2018-07-01T22:12:36.645Z,31.28
2018-07-01T22:15:07.685Z,31.34
2018-07-01T22:17:35.625Z,31.78
2018-07-01T22:20:04.764Z,31.89
2018-07-01T22:22:32.417Z,31.08
2018-07-01T22:25:01.452Z,31.56
2018-07-01T22:27:29.671Z,31.34
2018-07-01T22:29:58.052Z,31.09
2018-07-01T22:32:26.389Z,31.43
2018-07-01T22:34:55.581Z,31.69
2018-07-01T22:37:26.272Z,31.38
2018-07-01T22:39:55.619Z,31.51
2018-07-01T22:42:23.797Z,32.11
2018-07-01T22:44:53.450Z,31.69
2018-07-01T22:47:24.056Z,31.70
2018-07-01T22:49:53.660Z,31.68
2018-07-01T22:52:26.484Z,31.68
2018-07-01T22:54:54.913Z,31.75
2018-07-01T22:57:22.584Z,32.03
2018-07-01T22:59:52.913Z,31.63
2018-07-01T23:02:20.577Z,31.72
2018-07-01T23:04:49.212Z,32.62
2018-07-01T23:07:17.184Z,32.85
2018-07-01T23:09:45.503Z,32.16
2018-07-01T23:12:14.204Z,33.06
2018-07-01T23:14:41.869Z,32.87
2018-07-01T23:17:13.637Z,32.83
2018-07-01T23:19:41.941Z,32.79
2018-07-01T23:22:09.579Z,32.84
2018-07-01T23:24:37.231Z,32.64
2018-07-01T23:27:10.237Z,33.50
2018-07-01T23:29:38.061Z,33.52
2018-07-01T23:32:12.365Z,32.94
2018-07-01T23:34:43.241Z,33.25
2018-07-01T23:37:25.729Z,33.81
2018-07-01T23:39:54.407Z,33.02
2018-07-01T23:42:23.380Z,33.35
2018-07-01T23:44:51.607Z,33.41
2018-07-01T23:47:21.735Z,33.88
2018-07-01T23:49:50.539Z,33.66
2018-07-01T23:52:20.479Z,33.78
2018-07-01T23:54:49.150Z,33.86
2018-07-01T23:57:16.873Z,34.22
2018-07-01T23:59:44.950Z,34.15
